• Join FlightAware (Why Join?)
  • Login
  • US Flag 
03:52PM EDT


 

Airport Tracker/Info


-or-


 

Live Flight TrackerFlight Track Log ✈ UAL4700 ✈ 01-May-2013 ✈ KEWR - KCLT

Flight Track Log - Related Links

Times and Time Zones

All times are in EDT time to prevent confusion due to time zone crossing. See the UAL4700 flight status page for this flight to view local times or setup timezone preferences in your user account.

Time Position Orientation Groundspeed Altitude Reporting Facility
EDT Latitude Longitude Course Direction KTS MPH feet Rate Location/Type
10:17PM 40.6667 -74.1833 237° Southwest 171 197 1,300  Level New York TRACON
10:20PM 40.6194 -74.3689 252° West 273 314 6,700 2,340 Climbing New York Center
10:21PM 40.5272 -74.6282 250° West  Level FlightAware Approximate
10:21PM 40.6139 -74.4808 266° West 283 326 9,700  Level New York Center
10:22PM 40.4891 -74.7497 246° West  Level FlightAware Approximate
10:22PM 40.6042 -74.5869 263° West 293 337 11,400  Level New York Center
10:23PM 40.4484 -74.8698 237° Southwest  Level FlightAware Approximate
10:23PM 40.5633 -74.6858 241° Southwest 311 358 12,100  Level New York Center
10:24PM 40.5031 -74.8078 237° Southwest 354 407 13,800 1,740 Climbing New York Center
10:25PM 40.4447 -74.9244 237° Southwest 376 433 15,500 1,320 Climbing New York Center
10:26PM 40.3783 -75.0322 231° Southwest 381 438 16,500 1,020 Climbing New York Center
10:27PM 40.3036 -75.1392 228° Southwest 393 452 17,600 900 Climbing New York Center
10:28PM 40.2333 -75.2353 226° Southwest 406 467 18,300 900 Climbing New York Center
10:29PM 40.1494 -75.3547 227° Southwest 412 474 19,500 1,140 Climbing New York Center
10:30PM 40.0700 -75.4661 227° Southwest 412 474 20,700 1,140 Climbing New York Center
10:31PM 39.9864 -75.5797 226° Southwest 418 481 21,800 1,260 Climbing New York Center
10:32PM 39.9067 -75.6906 227° Southwest 424 488 23,200 1,260 Climbing New York Center
10:33PM 39.8350 -75.8100 232° Southwest 429 494 24,400 1,200 Climbing New York Center
10:35PM 39.6711 -76.0658 230° Southwest 420 483 27,100 1,200 Climbing Washington Center
10:36PM 39.5975 -76.1814 230° Southwest 420 483 28,300 1,140 Climbing Washington Center
10:37PM 39.5261 -76.2992 232° Southwest 420 483 29,400 1,260 Climbing Washington Center
10:38PM 39.4503 -76.4139 229° Southwest 426 490 30,900 1,560 Climbing Washington Center
10:39PM 39.3725 -76.5258 228° Southwest 426 490 32,600 1,500 Climbing Washington Center
10:40PM 39.3006 -76.6403 231° Southwest 426 490 33,900 660 Climbing Washington Center
10:41PM 39.2267 -76.7544 230° Southwest 426 490 34,000  Climbing Washington Center
10:42PM 39.1483 -76.8789 231° Southwest 433 498 34,000  Level Washington Center
10:43PM 39.0678 -77.0031 230° Southwest 447 514 34,000  Level Washington Center
10:44PM 38.9725 -77.1136 222° Southwest 452 520 34,000  Level Washington Center
10:45PM 38.8772 -77.2208 221° Southwest 457 526 34,000  Level Washington Center
10:46PM 38.7947 -77.3097 220° Southwest 457 526 34,000  Level Washington Center
10:47PM 38.7017 -77.4111 220° Southwest 452 520 34,000  Level Washington Center
10:48PM 38.6061 -77.5178 221° Southwest 452 520 34,000  Level Washington Center
10:49PM 38.5147 -77.6189 221° Southwest 452 520 34,000  Level Washington Center
10:50PM 38.4192 -77.7222 220° Southwest 452 520 34,000  Level Washington Center
10:51PM 38.3214 -77.8253 220° Southwest 447 514 34,000  Level Washington Center
10:52PM 38.2278 -77.9283 221° Southwest 447 514 34,000  Level Washington Center
10:53PM 38.1319 -78.0283 219° Southwest 447 514 34,000  Level Washington Center
10:54PM 38.0400 -78.1308 221° Southwest 447 514 34,000  Level Washington Center
10:55PM 37.9606 -78.2386 227° Southwest 432 497 34,000  Level Washington Center
10:56PM 37.8808 -78.3517 228° Southwest 432 497 34,000  Level Washington Center
10:57PM 37.8031 -78.4644 229° Southwest 432 497 34,000  Level Washington Center
10:58PM 37.7231 -78.5769 228° Southwest 432 497 34,000  Level Washington Center
10:59PM 37.6367 -78.7019 229° Southwest 432 497 34,000  Level Washington Center
11:00PM 37.5564 -78.8142 228° Southwest 432 497 34,000  Level Washington Center
11:01PM 37.4761 -78.9283 228° Southwest 432 497 34,000  Level Washington Center
11:02PM 37.3958 -79.0372 227° Southwest 432 497 34,000  Level Washington Center
11:03PM 37.3153 -79.1511 228° Southwest 432 497 34,000  Level Washington Center
11:04PM 37.2353 -79.2492 224° Southwest 432 497 34,000  Level Washington Center
11:05PM 37.1344 -79.3356 214° Southwest 437 503 34,000  Level Washington Center
11:06PM 37.0317 -79.4217 214° Southwest 442 509 34,000  Level Washington Center
11:07PM 36.9289 -79.5050 213° Southwest 448 516 34,000 -420 Level Washington Center
11:08PM 36.8300 -79.5881 214° Southwest 453 521 33,200 -1,800 Descending Washington Center
11:09PM 36.7142 -79.6833 213° Southwest 448 516 30,400 -2,640 Descending Washington Center
11:10PM 36.6089 -79.7683 213° Southwest 458 527 28,000 -2,400 Descending Washington Center
11:11PM 36.5183 -79.8383 212° Southwest 461 531 26,100 -2,400 Descending Atlanta Center
11:12PM 36.4228 -79.9156 213° Southwest 467 537 23,600 -2,100 Descending Atlanta Center
11:13PM 36.3214 -79.9981 213° Southwest 459 528 22,000 -900 Descending Atlanta Center
11:14PM 36.2178 -80.0858 214° Southwest 454 522 21,900 -1,140 Descending Atlanta Center
11:15PM 36.1183 -80.1728 215° Southwest 449 517 19,800 -2,340 Descending Atlanta Center
11:16PM 36.0147 -80.2600 214° Southwest 437 503 17,300 -2,400 Descending Atlanta Center
11:17PM 35.9336 -80.3331 216° Southwest 419 482 15,000 -2,160 Descending Atlanta Center
11:18PM 35.8503 -80.4061 215° Southwest 392 451 13,000 -1,620 Descending Atlanta Center
11:18PM 35.8197 -80.4328 215° Southwest 328 377 12,900 -540 Descending Atlanta Center
11:19PM 35.7767 -80.4656 212° Southwest 347 399 12,500 -900 Descending Atlanta Center
11:19PM 35.7483 -80.4925 218° Southwest 300 345 12,000 -1,020 Descending Atlanta Center
11:20PM 35.7075 -80.5247 213° Southwest 312 359 11,500 -900 Descending Atlanta Center
11:20PM 35.6792 -80.5492 215° Southwest 292 336 11,100 -540 Descending Atlanta Center
11:21PM 35.6403 -80.5789 212° Southwest 294 338 11,000 -60 Descending Atlanta Center
11:22PM 35.5669 -80.6406 214° Southwest 294 338 11,000  Level Atlanta Center
11:22PM 35.5506 -80.6567 219° Southwest 289 333 11,000  Level Atlanta Center
11:23PM 35.4997 -80.6969 213° Southwest 299 344 11,000  Level Atlanta Center
11:24PM 35.4322 -80.7533 214° Southwest 299 344 11,000  Level Atlanta Center
11:24PM 35.4139 -80.7667 211° Southwest 296 341 11,000  Level Atlanta Center
11:25PM 35.3650 -80.8094 216° Southwest 299 344 11,000 -180 Level Atlanta Center
11:26PM 35.2886 -80.8406 198° South 292 336 10,700 -720 Descending Atlanta Center
11:27PM 35.1883 -80.8392 179° South 285 328 9,400 -1,320 Descending Atlanta Center
11:28PM 35.1358 -80.9022 224° Southwest 274 315 7,900 -1,680 Descending Atlanta Center
11:29PM 35.0853 -80.9700 228° Southwest 266 306 6,200 -1,620 Descending Atlanta Center
11:30PM 35.0347 -81.0403 229° Southwest 251 289 4,500 -1,080 Descending Atlanta Center
11:31PM 35.0033 -81.1175 244° Southwest 269 310 4,000 -300 Descending Atlanta Center
11:32PM 35.0603 -81.1486 336° Northwest 224 258 4,000  Level Atlanta Center
11:33PM 35.0889 -81.1172 42° Northeast 161 185 4,000  Level Atlanta Center